Terminal Aerodrome Forecast
Issued by NWS

Home | Current Version | Previous Version | Text Only | Print | Product List | Glossary On
Versions: 1 2 3 4 5 6 7 8 9 10 11 12 13 14 15 16 17
000
FTUS43 KGRB 180500
TAFMTW
TAF
KMTW 180523Z 1806/1906 31011G18KT P6SM VCSH SCT025 BKN050
      TEMPO 1806/1810 BKN025
     FM181000 35013KT P6SM SCT025 BKN050
     FM181500 35013G19KT P6SM SCT050
     FM181800 35012G16KT P6SM SKC
     FM182200 36006KT P6SM SKC=

USA.gov is the U.S. government's official web portal to all federal, state and local government web resources and services.